KCEU/CEU METAR and TAF weather

Enter ICAO airport designator
Station Type Date Time Source
KCEU METAR 2019/06/16 07:54 UTC NOAA

KCEU 160754Z AUTO 00000KT 10SM CLR 20/15 A3008 RMK AO2 SLP176 T02000150 $


Station Type Date Time Source
KCEU Decoded METAR 2019/06/16 07:54 UTC NOAA

CLEMSON-OCONEE COUNTY AIRPORT , SC, United States (KCEU) 34-40N 082-53W 268M
Jun 16, 2019 - 03:54 AM EDT / 2019.06.16 0754 UTC
Wind: Calm:0
Visibility: 10 mile(s):0
Sky conditions: clear
Temperature: 68.0 F (20.0 C)
Dew Point: 59.0 F (15.0 C)
Relative Humidity: 72%
Pressure (altimeter): 30.08 in. Hg (1018 hPa)
ob: KCEU 160754Z AUTO 00000KT 10SM CLR 20/15 A3008 RMK AO2 SLP176 T02000150
cycle: 8

Station Type Date Time Source
KCEU TAF UTC NOAA

Error!

Example: see airport list